createdAt,value
2023-05-16T00:00:27.739Z,2.95
2023-05-16T00:03:33.516Z,3.58
2023-05-16T00:06:40.165Z,3.20
2023-05-16T00:09:46.024Z,3.95
2023-05-16T00:12:51.497Z,3.40
2023-05-16T00:15:58.203Z,3.00
2023-05-16T00:19:08.151Z,3.20
2023-05-16T00:22:14.652Z,3.47
2023-05-16T00:25:20.858Z,4.00
2023-05-16T00:28:25.762Z,3.30
2023-05-16T00:31:31.992Z,3.70
2023-05-16T00:34:37.775Z,3.20
2023-05-16T00:37:45.155Z,3.05
2023-05-16T00:40:50.780Z,4.53
2023-05-16T00:43:56.360Z,3.35
2023-05-16T00:47:02.346Z,3.47
2023-05-16T00:50:07.952Z,3.40
2023-05-16T00:53:13.705Z,3.27
2023-05-16T00:56:20.145Z,3.70
2023-05-16T00:59:26.943Z,3.95
2023-05-16T01:02:33.727Z,4.70
2023-05-16T01:05:40.163Z,4.00
2023-05-16T01:08:45.719Z,3.72
2023-05-16T01:12:45.297Z,3.42
2023-05-16T01:16:00.532Z,3.33
2023-05-16T01:19:16.722Z,3.52
2023-05-16T01:22:37.783Z,3.62
2023-05-16T01:26:12.973Z,3.52
2023-05-16T01:29:18.549Z,3.87
2023-05-16T01:32:24.199Z,3.62
2023-05-16T01:35:30.897Z,4.40
2023-05-16T01:38:41.473Z,4.42
2023-05-16T01:42:02.603Z,5.05
2023-05-16T01:45:39.800Z,4.47
2023-05-16T01:48:49.969Z,4.95
2023-05-16T01:51:55.798Z,4.60
2023-05-16T01:55:01.682Z,4.42
2023-05-16T01:58:06.865Z,4.87
2023-05-16T02:01:12.778Z,4.95
2023-05-16T02:04:05.649Z,5.05
2023-05-16T02:07:12.689Z,4.95
2023-05-16T02:10:17.914Z,4.45
2023-05-16T02:13:23.027Z,4.58
2023-05-16T02:16:27.834Z,5.00
2023-05-16T02:19:33.192Z,4.35
2023-05-16T02:22:39.770Z,5.00
2023-05-16T02:25:45.990Z,5.17
2023-05-16T02:28:56.185Z,5.22
2023-05-16T02:32:01.687Z,5.08
2023-05-16T02:35:08.007Z,4.78
2023-05-16T02:38:14.654Z,5.17
2023-05-16T02:41:19.879Z,13.93
2023-05-16T02:44:25.661Z,12.10
2023-05-16T02:47:31.790Z,7.35
2023-05-16T02:50:38.140Z,6.10
2023-05-16T02:53:43.952Z,5.28
2023-05-16T02:56:51.823Z,5.75
2023-05-16T02:59:58.603Z,5.03
2023-05-16T03:03:05.482Z,4.95
2023-05-16T03:06:12.769Z,5.47
2023-05-16T03:09:19.002Z,5.45
2023-05-16T03:12:24.902Z,5.67
2023-05-16T03:15:30.095Z,5.53
2023-05-16T03:18:35.953Z,5.28
2023-05-16T03:21:42.989Z,4.62
2023-05-16T03:24:47.851Z,4.62
2023-05-16T03:27:53.552Z,6.08
2023-05-16T03:30:59.438Z,6.20
2023-05-16T03:34:04.380Z,5.28
2023-05-16T03:37:10.785Z,5.65
2023-05-16T03:40:16.740Z,5.97
2023-05-16T03:43:23.373Z,5.10
2023-05-16T03:46:29.377Z,5.70
2023-05-16T03:49:35.635Z,5.60
2023-05-16T03:52:40.469Z,6.03
2023-05-16T03:55:48.097Z,6.25
2023-05-16T03:58:53.652Z,6.03
2023-05-16T04:01:59.328Z,5.78
2023-05-16T04:05:04.066Z,6.30
2023-05-16T04:08:10.442Z,6.37
2023-05-16T04:11:16.900Z,7.05
2023-05-16T04:14:22.680Z,7.22
2023-05-16T04:17:28.290Z,7.58
2023-05-16T04:20:33.242Z,8.40
2023-05-16T04:23:37.932Z,7.92
2023-05-16T04:26:44.372Z,8.20
2023-05-16T04:29:50.223Z,7.55
2023-05-16T04:32:55.618Z,8.08
2023-05-16T04:36:01.202Z,6.85
2023-05-16T04:39:06.962Z,8.33
2023-05-16T04:42:14.150Z,7.47
2023-05-16T04:45:20.932Z,7.92
2023-05-16T04:48:26.632Z,8.25
2023-05-16T04:51:33.307Z,8.28
2023-05-16T04:54:38.862Z,6.50
2023-05-16T04:57:44.258Z,7.08
2023-05-16T05:00:49.960Z,6.35
2023-05-16T05:03:57.091Z,6.62
2023-05-16T05:07:03.257Z,6.53
2023-05-16T05:10:09.142Z,6.92
2023-05-16T05:13:14.510Z,6.20
2023-05-16T05:16:20.971Z,6.65
2023-05-16T05:19:27.159Z,6.00
2023-05-16T05:22:33.660Z,5.72
2023-05-16T05:25:46.174Z,5.92
2023-05-16T05:29:03.877Z,5.60
2023-05-16T05:32:00.283Z,5.10
2023-05-16T05:35:06.441Z,5.25
2023-05-16T05:38:12.411Z,4.87
2023-05-16T05:41:19.259Z,4.33
2023-05-16T05:44:28.967Z,4.37
2023-05-16T05:47:34.804Z,4.42
2023-05-16T05:50:40.358Z,4.47
2023-05-16T05:53:45.780Z,4.00
2023-05-16T05:56:50.560Z,4.37
2023-05-16T05:59:57.448Z,4.83
2023-05-16T06:03:04.293Z,4.08
2023-05-16T06:06:09.700Z,4.22
2023-05-16T06:09:15.433Z,3.20
2023-05-16T06:12:20.080Z,3.70
2023-05-16T06:15:26.305Z,2.90
2023-05-16T06:18:32.506Z,3.40
2023-05-16T06:21:38.028Z,3.10
2023-05-16T06:24:45.187Z,3.08
2023-05-16T06:27:50.916Z,3.40
2023-05-16T06:30:57.891Z,3.40
2023-05-16T06:34:04.083Z,3.15
2023-05-16T06:37:11.034Z,3.40
2023-05-16T06:40:16.397Z,3.17
2023-05-16T06:43:22.684Z,3.10
2023-05-16T06:46:29.620Z,4.25
2023-05-16T06:49:35.826Z,2.90
2023-05-16T06:52:41.509Z,3.17
2023-05-16T06:55:47.447Z,3.02
2023-05-16T06:58:53.421Z,3.33
2023-05-16T07:01:59.531Z,3.15
2023-05-16T07:05:04.695Z,2.85
2023-05-16T07:08:10.344Z,3.37
2023-05-16T07:11:15.778Z,2.85
2023-05-16T07:14:21.507Z,2.58
2023-05-16T07:17:33.678Z,2.70
2023-05-16T07:20:40.706Z,2.92
2023-05-16T07:23:46.578Z,2.80
2023-05-16T07:26:53.115Z,2.80
2023-05-16T07:29:58.421Z,2.50
2023-05-16T07:33:04.996Z,2.90
2023-05-16T07:36:16.875Z,2.52
2023-05-16T07:39:18.081Z,2.70
2023-05-16T07:42:23.538Z,2.83
2023-05-16T07:45:29.839Z,2.77
2023-05-16T07:48:36.156Z,2.67
2023-05-16T07:51:43.544Z,2.27
2023-05-16T07:54:49.952Z,2.52
2023-05-16T07:57:56.087Z,2.58
2023-05-16T08:01:01.918Z,2.15
2023-05-16T08:04:08.477Z,2.42
2023-05-16T08:07:14.044Z,2.10
2023-05-16T08:10:20.862Z,2.05
2023-05-16T08:13:26.435Z,2.08
2023-05-16T08:16:31.908Z,1.40
2023-05-16T08:19:40.444Z,1.60
2023-05-16T08:22:47.199Z,1.87
2023-05-16T08:25:55.199Z,1.40
2023-05-16T08:29:00.581Z,1.95
2023-05-16T08:31:59.567Z,1.95
2023-05-16T08:35:06.213Z,1.72
2023-05-16T08:38:12.931Z,2.08
2023-05-16T08:41:17.991Z,1.90
2023-05-16T08:44:25.379Z,1.80
2023-05-16T08:47:35.178Z,2.08
2023-05-16T08:50:40.072Z,1.72
2023-05-16T08:53:49.509Z,2.10
2023-05-16T08:56:56.674Z,1.75
2023-05-16T09:00:03.609Z,1.37
2023-05-16T09:03:09.972Z,1.80
2023-05-16T09:06:15.294Z,2.02
2023-05-16T09:09:21.001Z,1.75
2023-05-16T09:12:26.689Z,1.60
2023-05-16T09:15:33.629Z,1.60
2023-05-16T09:18:38.970Z,1.85
2023-05-16T09:21:48.854Z,2.08
2023-05-16T09:24:56.306Z,2.02
2023-05-16T09:28:03.905Z,1.82
2023-05-16T09:31:10.051Z,1.90
2023-05-16T09:34:15.864Z,2.02
2023-05-16T09:37:21.459Z,1.90
2023-05-16T09:40:27.580Z,2.00
2023-05-16T09:43:37.509Z,1.77
2023-05-16T09:46:45.367Z,2.00
2023-05-16T09:49:52.795Z,1.90
2023-05-16T09:52:59.317Z,1.80
2023-05-16T09:56:05.333Z,2.33
2023-05-16T09:59:10.770Z,2.35
2023-05-16T10:02:16.316Z,1.70
2023-05-16T10:05:24.436Z,2.45
2023-05-16T10:08:31.011Z,2.27
2023-05-16T10:11:36.617Z,2.47
2023-05-16T10:14:43.481Z,2.67
2023-05-16T10:17:52.202Z,2.75
2023-05-16T10:21:00.017Z,2.73
2023-05-16T10:24:05.594Z,3.05
2023-05-16T10:27:11.052Z,3.20
2023-05-16T10:30:16.491Z,3.37
2023-05-16T10:33:22.997Z,3.15
2023-05-16T10:36:29.271Z,2.90
2023-05-16T10:39:34.002Z,2.90
2023-05-16T10:42:40.084Z,3.30
2023-05-16T10:45:46.900Z,3.02
2023-05-16T10:48:55.082Z,2.77
2023-05-16T10:52:19.749Z,3.12
2023-05-16T10:55:25.734Z,3.47
2023-05-16T10:58:54.392Z,3.08
2023-05-16T11:02:00.846Z,3.58
2023-05-16T11:05:05.898Z,4.05
2023-05-16T11:08:21.952Z,3.75
2023-05-16T11:12:05.599Z,3.58
2023-05-16T11:15:11.350Z,3.00
2023-05-16T11:18:29.907Z,3.08
2023-05-16T11:21:35.582Z,3.05
2023-05-16T11:24:45.345Z,3.87
2023-05-16T11:27:53.481Z,3.72
2023-05-16T11:31:02.416Z,3.70
2023-05-16T11:34:07.708Z,3.60
2023-05-16T11:40:30.776Z,3.67
2023-05-16T11:43:37.431Z,3.60
2023-05-16T11:46:42.757Z,3.70
2023-05-16T11:49:49.621Z,4.20
2023-05-16T11:52:54.838Z,4.65
2023-05-16T11:56:00.219Z,4.12
2023-05-16T11:59:06.220Z,4.25
2023-05-16T12:02:14.519Z,4.03
2023-05-16T12:05:27.602Z,3.75
2023-05-16T12:08:32.900Z,4.08
2023-05-16T12:11:41.475Z,3.55
2023-05-16T12:14:47.378Z,3.70
2023-05-16T12:17:55.311Z,4.15
2023-05-16T12:21:01.593Z,3.33
2023-05-16T12:24:10.915Z,3.30
2023-05-16T12:27:17.943Z,3.45
2023-05-16T12:30:25.620Z,4.25
2023-05-16T12:33:31.137Z,3.85
2023-05-16T12:36:36.641Z,3.47
2023-05-16T12:39:42.176Z,3.35
2023-05-16T12:42:47.915Z,3.15
2023-05-16T12:45:53.573Z,2.35
2023-05-16T12:49:00.193Z,1.47
2023-05-16T12:52:09.860Z,2.05
2023-05-16T12:55:17.383Z,1.87
2023-05-16T12:58:23.155Z,2.27
2023-05-16T13:01:29.757Z,2.27
2023-05-16T13:04:36.270Z,3.12
2023-05-16T13:07:42.319Z,2.22
2023-05-16T13:10:48.139Z,2.30
2023-05-16T13:13:54.165Z,2.17
2023-05-16T13:17:00.175Z,2.83
2023-05-16T13:20:05.810Z,2.50
2023-05-16T13:23:13.445Z,2.70
2023-05-16T13:26:23.118Z,3.02
2023-05-16T13:29:27.967Z,2.85
2023-05-16T13:32:33.776Z,2.80
2023-05-16T13:35:40.454Z,2.60
2023-05-16T13:38:46.102Z,2.70
2023-05-16T13:41:51.896Z,3.35
2023-05-16T13:44:58.551Z,3.20
2023-05-16T13:48:04.984Z,3.10
2023-05-16T13:51:10.836Z,2.77
2023-05-16T13:54:16.349Z,3.05
2023-05-16T13:57:16.050Z,2.90
2023-05-16T14:03:16.047Z,3.00
2023-05-16T14:06:21.681Z,3.00
2023-05-16T14:09:27.647Z,3.12
2023-05-16T14:12:33.713Z,3.37
2023-05-16T14:15:39.769Z,3.62
2023-05-16T14:18:45.924Z,3.27
2023-05-16T14:21:52.750Z,3.30
2023-05-16T14:24:58.988Z,3.30
2023-05-16T14:28:04.225Z,3.00
2023-05-16T14:31:10.284Z,3.02
2023-05-16T14:34:15.676Z,4.45
2023-05-16T14:37:22.710Z,4.28
2023-05-16T14:40:29.147Z,3.40
2023-05-16T14:43:35.757Z,2.67
2023-05-16T14:46:42.407Z,3.37
2023-05-16T14:49:48.209Z,2.83
2023-05-16T14:52:49.798Z,2.90
2023-05-16T14:55:56.108Z,2.60
2023-05-16T14:59:01.701Z,2.98
2023-05-16T15:02:07.239Z,2.55
2023-05-16T15:05:14.399Z,3.12
2023-05-16T15:08:20.970Z,2.95
2023-05-16T15:11:25.938Z,2.77
2023-05-16T15:14:33.734Z,3.37
2023-05-16T15:17:40.330Z,2.95
2023-05-16T15:20:46.387Z,2.85
2023-05-16T15:23:53.952Z,2.80
2023-05-16T15:27:01.099Z,2.62
2023-05-16T15:30:06.125Z,2.47
2023-05-16T15:33:12.654Z,2.75
2023-05-16T15:36:18.181Z,2.70
2023-05-16T15:39:24.729Z,2.75
2023-05-16T15:42:31.400Z,3.77
2023-05-16T15:45:40.499Z,3.02
2023-05-16T15:48:49.178Z,2.98
2023-05-16T15:51:55.721Z,3.07
2023-05-16T15:55:01.991Z,2.70
2023-05-16T15:58:08.522Z,3.47
2023-05-16T16:01:15.237Z,2.62
2023-05-16T16:04:22.539Z,2.40
2023-05-16T16:07:27.755Z,2.50
2023-05-16T16:10:37.646Z,2.40
2023-05-16T16:13:45.067Z,2.83
2023-05-16T16:16:50.345Z,2.87
2023-05-16T16:19:55.900Z,2.55
2023-05-16T16:23:01.867Z,2.77
2023-05-16T16:26:08.383Z,3.67
2023-05-16T16:29:14.716Z,2.77
2023-05-16T16:32:23.391Z,2.50
2023-05-16T16:35:31.505Z,2.90
2023-05-16T16:38:37.467Z,3.90
2023-05-16T16:41:44.146Z,2.62
2023-05-16T16:44:50.216Z,2.77
2023-05-16T16:47:56.109Z,2.75
2023-05-16T16:51:01.559Z,2.42
2023-05-16T16:54:07.459Z,3.02
2023-05-16T16:57:13.244Z,2.70
2023-05-16T17:00:21.545Z,2.70
2023-05-16T17:03:26.724Z,2.62
2023-05-16T17:06:33.519Z,3.75
2023-05-16T17:09:40.285Z,2.75
2023-05-16T17:12:51.170Z,2.65
2023-05-16T17:15:56.727Z,2.50
2023-05-16T17:19:03.492Z,2.67
2023-05-16T17:22:08.823Z,2.60
2023-05-16T17:25:13.350Z,2.87
2023-05-16T17:28:18.882Z,2.60
2023-05-16T17:31:24.720Z,2.62
2023-05-16T17:34:31.118Z,2.52
2023-05-16T17:37:37.040Z,2.55
2023-05-16T17:40:43.664Z,2.75
2023-05-16T17:43:49.988Z,3.15
2023-05-16T17:46:56.477Z,2.50
2023-05-16T17:50:02.445Z,2.58
2023-05-16T17:53:08.909Z,2.50
2023-05-16T17:56:15.878Z,2.22
2023-05-16T17:59:21.351Z,2.20
2023-05-16T18:02:27.108Z,2.25
2023-05-16T18:05:32.956Z,2.17
2023-05-16T18:08:40.149Z,2.30
2023-05-16T18:11:41.834Z,2.50
2023-05-16T18:14:43.078Z,3.08
2023-05-16T18:17:48.591Z,2.55
2023-05-16T18:20:54.971Z,2.35
2023-05-16T18:24:03.689Z,2.60
2023-05-16T18:27:10.169Z,2.83
2023-05-16T18:30:16.903Z,2.60
2023-05-16T18:33:23.006Z,2.50
2023-05-16T18:36:27.980Z,2.30
2023-05-16T18:39:34.771Z,2.12
2023-05-16T18:42:40.224Z,2.30
2023-05-16T18:45:46.341Z,2.58
2023-05-16T18:48:52.298Z,2.58
2023-05-16T18:51:56.881Z,2.25
2023-05-16T18:55:02.406Z,2.45
2023-05-16T18:58:07.972Z,2.62
2023-05-16T19:01:13.198Z,2.45
2023-05-16T19:04:19.120Z,3.12
2023-05-16T19:07:25.944Z,2.67
2023-05-16T19:10:32.504Z,2.92
2023-05-16T19:13:38.955Z,2.58
2023-05-16T19:16:44.709Z,2.77
2023-05-16T19:19:50.475Z,2.52
2023-05-16T19:22:58.691Z,2.72
2023-05-16T19:26:05.445Z,2.65
2023-05-16T19:29:11.591Z,2.58
2023-05-16T19:32:17.758Z,2.65
2023-05-16T19:35:25.658Z,2.60
2023-05-16T19:38:33.089Z,3.67
2023-05-16T19:41:38.417Z,3.17
2023-05-16T19:44:44.319Z,2.45
2023-05-16T19:47:50.350Z,2.83
2023-05-16T19:50:57.770Z,2.27
2023-05-16T19:54:03.532Z,2.33
2023-05-16T19:57:09.221Z,2.52
2023-05-16T20:00:16.783Z,3.47
2023-05-16T20:03:21.997Z,2.77
2023-05-16T20:06:27.521Z,2.92
2023-05-16T20:09:35.107Z,3.05
2023-05-16T20:12:41.225Z,2.40
2023-05-16T20:15:47.877Z,3.30
2023-05-16T20:18:54.290Z,2.65
2023-05-16T20:22:01.704Z,2.85
2023-05-16T20:25:06.964Z,2.50
2023-05-16T20:28:06.013Z,2.47
2023-05-16T20:31:12.643Z,2.20
2023-05-16T20:34:18.422Z,2.70
2023-05-16T20:37:24.041Z,2.90
2023-05-16T20:40:30.325Z,3.08
2023-05-16T20:43:36.102Z,3.05
2023-05-16T20:46:42.098Z,2.55
2023-05-16T20:49:50.047Z,2.72
2023-05-16T20:52:55.930Z,2.40
2023-05-16T20:56:02.035Z,2.65
2023-05-16T20:59:00.887Z,2.83
2023-05-16T21:02:07.216Z,2.80
2023-05-16T21:05:24.208Z,2.80
2023-05-16T21:08:21.695Z,2.90
2023-05-16T21:11:28.563Z,2.37
2023-05-16T21:14:33.641Z,2.70
2023-05-16T21:17:39.032Z,2.42
2023-05-16T21:20:45.878Z,2.83
2023-05-16T21:23:51.417Z,2.87
2023-05-16T21:26:56.906Z,2.45
2023-05-16T21:30:04.161Z,2.60
2023-05-16T21:33:10.139Z,2.90
2023-05-16T21:36:15.418Z,2.40
2023-05-16T21:39:21.089Z,3.33
2023-05-16T21:42:27.327Z,2.87
2023-05-16T21:45:33.212Z,2.42
2023-05-16T21:48:38.785Z,2.83
2023-05-16T21:51:44.586Z,3.05
2023-05-16T21:54:50.202Z,2.55
2023-05-16T21:57:56.028Z,2.62
2023-05-16T22:01:01.946Z,2.67
2023-05-16T22:04:07.694Z,3.12
2023-05-16T22:07:12.801Z,2.80
2023-05-16T22:10:18.561Z,2.95
2023-05-16T22:13:23.352Z,3.40
2023-05-16T22:16:29.235Z,2.85
2023-05-16T22:19:35.057Z,3.45
2023-05-16T22:22:41.978Z,3.27
2023-05-16T22:25:48.345Z,3.40
2023-05-16T22:28:53.690Z,3.90
2023-05-16T22:31:59.116Z,3.25
2023-05-16T22:35:05.737Z,3.42
2023-05-16T22:38:12.001Z,3.17
2023-05-16T22:41:17.952Z,3.47
2023-05-16T22:44:23.310Z,4.00
2023-05-16T22:47:29.393Z,4.12
2023-05-16T22:50:35.251Z,3.87
2023-05-16T22:53:42.056Z,3.90
2023-05-16T22:56:47.764Z,3.70
2023-05-16T22:59:53.117Z,3.92
2023-05-16T23:02:58.977Z,3.52
2023-05-16T23:06:05.138Z,3.62
2023-05-16T23:09:11.529Z,3.98
2023-05-16T23:12:16.945Z,3.72
2023-05-16T23:15:23.384Z,4.35
2023-05-16T23:18:30.162Z,3.47
2023-05-16T23:21:35.386Z,3.22
2023-05-16T23:24:41.773Z,3.12
2023-05-16T23:27:48.201Z,3.45
2023-05-16T23:30:55.041Z,4.12
2023-05-16T23:34:00.891Z,3.42
2023-05-16T23:37:06.508Z,3.55
2023-05-16T23:40:11.329Z,4.37
2023-05-16T23:43:17.697Z,3.45
2023-05-16T23:46:23.427Z,3.67
2023-05-16T23:49:28.637Z,3.22
2023-05-16T23:52:34.486Z,3.83
2023-05-16T23:55:40.167Z,3.40
2023-05-16T23:58:46.121Z,3.52
